sensor_id;sensor_type;location;lat;lon;timestamp;P1;durP1;ratioP1;P2;durP2;ratioP2
15287;SDS011;7745;48.708;9.026;2022-07-31T00:00:07;2.97;;;2.30;;
15287;SDS011;7745;48.708;9.026;2022-07-31T00:02:35;4.93;;;2.40;;
15287;SDS011;7745;48.708;9.026;2022-07-31T00:05:02;3.77;;;2.40;;
15287;SDS011;7745;48.708;9.026;2022-07-31T00:07:29;2.87;;;2.13;;
15287;SDS011;7745;48.708;9.026;2022-07-31T00:09:57;5.07;;;2.97;;
15287;SDS011;7745;48.708;9.026;2022-07-31T00:12:24;2.40;;;2.20;;
15287;SDS011;7745;48.708;9.026;2022-07-31T00:14:52;3.17;;;2.27;;
15287;SDS011;7745;48.708;9.026;2022-07-31T00:17:19;3.27;;;2.23;;
15287;SDS011;7745;48.708;9.026;2022-07-31T00:19:46;3.37;;;2.30;;
15287;SDS011;7745;48.708;9.026;2022-07-31T00:22:12;2.90;;;2.30;;
15287;SDS011;7745;48.708;9.026;2022-07-31T00:24:39;5.20;;;2.40;;
15287;SDS011;7745;48.708;9.026;2022-07-31T00:27:07;2.77;;;2.40;;
15287;SDS011;7745;48.708;9.026;2022-07-31T00:29:34;2.70;;;2.30;;
15287;SDS011;7745;48.708;9.026;2022-07-31T00:32:02;2.43;;;2.23;;
15287;SDS011;7745;48.708;9.026;2022-07-31T00:34:29;4.17;;;2.40;;
15287;SDS011;7745;48.708;9.026;2022-07-31T00:36:56;2.53;;;2.33;;
15287;SDS011;7745;48.708;9.026;2022-07-31T00:39:23;3.63;;;2.63;;
15287;SDS011;7745;48.708;9.026;2022-07-31T00:41:50;3.13;;;2.47;;
15287;SDS011;7745;48.708;9.026;2022-07-31T00:44:20;3.27;;;2.43;;
15287;SDS011;7745;48.708;9.026;2022-07-31T00:46:47;4.13;;;2.60;;
15287;SDS011;7745;48.708;9.026;2022-07-31T00:49:14;2.70;;;2.50;;
15287;SDS011;7745;48.708;9.026;2022-07-31T00:51:40;2.63;;;2.43;;
15287;SDS011;7745;48.708;9.026;2022-07-31T00:54:08;3.10;;;2.60;;
15287;SDS011;7745;48.708;9.026;2022-07-31T00:56:35;3.53;;;2.73;;
15287;SDS011;7745;48.708;9.026;2022-07-31T00:59:02;3.60;;;2.50;;
15287;SDS011;7745;48.708;9.026;2022-07-31T01:01:31;3.50;;;2.50;;
15287;SDS011;7745;48.708;9.026;2022-07-31T01:03:58;3.27;;;2.63;;
15287;SDS011;7745;48.708;9.026;2022-07-31T01:06:25;5.27;;;2.50;;
15287;SDS011;7745;48.708;9.026;2022-07-31T01:08:52;3.87;;;2.70;;
15287;SDS011;7745;48.708;9.026;2022-07-31T01:11:20;2.60;;;2.40;;
15287;SDS011;7745;48.708;9.026;2022-07-31T01:13:53;3.80;;;2.50;;
15287;SDS011;7745;48.708;9.026;2022-07-31T01:16:23;3.23;;;2.53;;
15287;SDS011;7745;48.708;9.026;2022-07-31T01:18:56;4.13;;;2.50;;
15287;SDS011;7745;48.708;9.026;2022-07-31T01:21:26;3.67;;;2.33;;
15287;SDS011;7745;48.708;9.026;2022-07-31T01:26:45;3.87;;;2.73;;
15287;SDS011;7745;48.708;9.026;2022-07-31T01:29:19;2.73;;;2.53;;
15287;SDS011;7745;48.708;9.026;2022-07-31T01:31:51;3.60;;;2.90;;
15287;SDS011;7745;48.708;9.026;2022-07-31T01:34:24;2.53;;;2.33;;
15287;SDS011;7745;48.708;9.026;2022-07-31T01:36:58;3.70;;;2.40;;
15287;SDS011;7745;48.708;9.026;2022-07-31T01:39:31;2.83;;;2.63;;
15287;SDS011;7745;48.708;9.026;2022-07-31T01:42:01;2.97;;;2.67;;
15287;SDS011;7745;48.708;9.026;2022-07-31T01:44:34;3.07;;;2.77;;
15287;SDS011;7745;48.708;9.026;2022-07-31T01:47:10;4.57;;;2.83;;
15287;SDS011;7745;48.708;9.026;2022-07-31T01:49:40;2.97;;;2.60;;
15287;SDS011;7745;48.708;9.026;2022-07-31T01:52:08;3.37;;;2.60;;
15287;SDS011;7745;48.708;9.026;2022-07-31T01:54:36;3.63;;;2.43;;
15287;SDS011;7745;48.708;9.026;2022-07-31T01:57:03;4.20;;;2.67;;
15287;SDS011;7745;48.708;9.026;2022-07-31T01:59:34;4.20;;;2.60;;
15287;SDS011;7745;48.708;9.026;2022-07-31T02:02:03;5.13;;;2.70;;
15287;SDS011;7745;48.708;9.026;2022-07-31T02:04:30;3.00;;;2.70;;
15287;SDS011;7745;48.708;9.026;2022-07-31T02:06:58;5.17;;;2.60;;
15287;SDS011;7745;48.708;9.026;2022-07-31T02:09:26;5.27;;;3.00;;
15287;SDS011;7745;48.708;9.026;2022-07-31T02:11:54;4.40;;;3.13;;
15287;SDS011;7745;48.708;9.026;2022-07-31T02:14:23;3.07;;;2.80;;
15287;SDS011;7745;48.708;9.026;2022-07-31T02:16:51;2.73;;;2.53;;
15287;SDS011;7745;48.708;9.026;2022-07-31T02:19:19;4.07;;;2.70;;
15287;SDS011;7745;48.708;9.026;2022-07-31T02:21:47;2.73;;;2.53;;
15287;SDS011;7745;48.708;9.026;2022-07-31T02:24:14;2.60;;;2.40;;
15287;SDS011;7745;48.708;9.026;2022-07-31T02:26:42;3.23;;;2.90;;
15287;SDS011;7745;48.708;9.026;2022-07-31T02:29:09;4.77;;;2.80;;
15287;SDS011;7745;48.708;9.026;2022-07-31T02:31:38;3.97;;;2.83;;
15287;SDS011;7745;48.708;9.026;2022-07-31T02:34:09;4.50;;;2.83;;
15287;SDS011;7745;48.708;9.026;2022-07-31T02:36:38;4.47;;;2.70;;
15287;SDS011;7745;48.708;9.026;2022-07-31T02:39:05;3.07;;;2.77;;
15287;SDS011;7745;48.708;9.026;2022-07-31T02:41:35;3.37;;;3.00;;
15287;SDS011;7745;48.708;9.026;2022-07-31T02:44:02;5.23;;;2.80;;
15287;SDS011;7745;48.708;9.026;2022-07-31T02:46:32;4.80;;;2.90;;
15287;SDS011;7745;48.708;9.026;2022-07-31T02:49:00;3.40;;;3.10;;
15287;SDS011;7745;48.708;9.026;2022-07-31T02:51:29;3.00;;;2.73;;
15287;SDS011;7745;48.708;9.026;2022-07-31T02:53:56;4.37;;;2.83;;
15287;SDS011;7745;48.708;9.026;2022-07-31T02:56:24;3.57;;;2.90;;
15287;SDS011;7745;48.708;9.026;2022-07-31T02:58:51;3.63;;;3.00;;
15287;SDS011;7745;48.708;9.026;2022-07-31T03:01:17;3.57;;;2.97;;
15287;SDS011;7745;48.708;9.026;2022-07-31T03:03:44;3.10;;;2.57;;
15287;SDS011;7745;48.708;9.026;2022-07-31T03:06:11;3.43;;;2.93;;
15287;SDS011;7745;48.708;9.026;2022-07-31T03:08:40;3.43;;;2.77;;
15287;SDS011;7745;48.708;9.026;2022-07-31T03:11:07;3.30;;;3.00;;
15287;SDS011;7745;48.708;9.026;2022-07-31T03:13:34;3.30;;;3.00;;
15287;SDS011;7745;48.708;9.026;2022-07-31T03:16:03;3.47;;;3.03;;
15287;SDS011;7745;48.708;9.026;2022-07-31T03:18:30;6.97;;;3.00;;
15287;SDS011;7745;48.708;9.026;2022-07-31T03:20:58;3.20;;;2.90;;
15287;SDS011;7745;48.708;9.026;2022-07-31T03:23:26;3.00;;;2.73;;
15287;SDS011;7745;48.708;9.026;2022-07-31T03:26:03;3.67;;;2.90;;
15287;SDS011;7745;48.708;9.026;2022-07-31T03:28:32;4.67;;;2.73;;
15287;SDS011;7745;48.708;9.026;2022-07-31T03:31:00;4.53;;;2.87;;
15287;SDS011;7745;48.708;9.026;2022-07-31T03:33:27;2.80;;;2.53;;
15287;SDS011;7745;48.708;9.026;2022-07-31T03:35:54;4.80;;;2.90;;
15287;SDS011;7745;48.708;9.026;2022-07-31T03:38:21;3.50;;;3.00;;
15287;SDS011;7745;48.708;9.026;2022-07-31T03:40:48;2.90;;;2.70;;
15287;SDS011;7745;48.708;9.026;2022-07-31T03:43:17;4.87;;;3.00;;
15287;SDS011;7745;48.708;9.026;2022-07-31T03:45:44;3.87;;;2.97;;
15287;SDS011;7745;48.708;9.026;2022-07-31T03:48:12;4.30;;;3.10;;
15287;SDS011;7745;48.708;9.026;2022-07-31T03:50:39;4.47;;;3.13;;
15287;SDS011;7745;48.708;9.026;2022-07-31T03:53:08;3.77;;;2.87;;
15287;SDS011;7745;48.708;9.026;2022-07-31T03:55:36;5.47;;;2.60;;
15287;SDS011;7745;48.708;9.026;2022-07-31T03:58:04;3.83;;;3.30;;
15287;SDS011;7745;48.708;9.026;2022-07-31T04:00:33;3.40;;;3.10;;
15287;SDS011;7745;48.708;9.026;2022-07-31T04:03:03;4.33;;;2.90;;
15287;SDS011;7745;48.708;9.026;2022-07-31T04:05:32;3.20;;;2.90;;
15287;SDS011;7745;48.708;9.026;2022-07-31T04:07:59;3.10;;;2.90;;
15287;SDS011;7745;48.708;9.026;2022-07-31T04:10:25;3.40;;;3.10;;
15287;SDS011;7745;48.708;9.026;2022-07-31T04:12:52;4.00;;;3.07;;
15287;SDS011;7745;48.708;9.026;2022-07-31T04:15:19;4.63;;;3.00;;
15287;SDS011;7745;48.708;9.026;2022-07-31T04:17:47;3.10;;;2.90;;
15287;SDS011;7745;48.708;9.026;2022-07-31T04:20:14;4.77;;;2.77;;
15287;SDS011;7745;48.708;9.026;2022-07-31T04:22:42;5.43;;;3.00;;
15287;SDS011;7745;48.708;9.026;2022-07-31T04:25:09;4.30;;;2.70;;
15287;SDS011;7745;48.708;9.026;2022-07-31T04:27:36;3.40;;;3.10;;
15287;SDS011;7745;48.708;9.026;2022-07-31T04:30:03;4.60;;;3.40;;
15287;SDS011;7745;48.708;9.026;2022-07-31T04:32:31;3.90;;;3.30;;
15287;SDS011;7745;48.708;9.026;2022-07-31T04:34:59;4.03;;;3.30;;
15287;SDS011;7745;48.708;9.026;2022-07-31T04:37:26;4.33;;;3.00;;
15287;SDS011;7745;48.708;9.026;2022-07-31T04:39:53;4.80;;;3.07;;
15287;SDS011;7745;48.708;9.026;2022-07-31T04:42:20;4.97;;;3.20;;
15287;SDS011;7745;48.708;9.026;2022-07-31T04:44:47;3.53;;;2.93;;
15287;SDS011;7745;48.708;9.026;2022-07-31T04:47:14;4.13;;;3.80;;
15287;SDS011;7745;48.708;9.026;2022-07-31T04:49:41;3.30;;;3.00;;
15287;SDS011;7745;48.708;9.026;2022-07-31T04:52:09;4.20;;;2.77;;
15287;SDS011;7745;48.708;9.026;2022-07-31T04:54:36;4.60;;;3.67;;
15287;SDS011;7745;48.708;9.026;2022-07-31T04:57:03;4.30;;;3.57;;
15287;SDS011;7745;48.708;9.026;2022-07-31T04:59:30;6.20;;;3.30;;
15287;SDS011;7745;48.708;9.026;2022-07-31T05:01:57;3.40;;;3.07;;
15287;SDS011;7745;48.708;9.026;2022-07-31T05:04:24;6.83;;;3.23;;
15287;SDS011;7745;48.708;9.026;2022-07-31T05:06:52;3.57;;;3.00;;
15287;SDS011;7745;48.708;9.026;2022-07-31T05:09:21;5.83;;;2.80;;
15287;SDS011;7745;48.708;9.026;2022-07-31T05:11:49;4.33;;;3.00;;
15287;SDS011;7745;48.708;9.026;2022-07-31T05:14:18;3.50;;;3.13;;
15287;SDS011;7745;48.708;9.026;2022-07-31T05:16:46;3.80;;;3.00;;
15287;SDS011;7745;48.708;9.026;2022-07-31T05:19:13;2.97;;;2.50;;
15287;SDS011;7745;48.708;9.026;2022-07-31T05:21:40;3.47;;;3.17;;
15287;SDS011;7745;48.708;9.026;2022-07-31T05:24:08;3.43;;;2.83;;
15287;SDS011;7745;48.708;9.026;2022-07-31T05:26:36;4.60;;;2.93;;
15287;SDS011;7745;48.708;9.026;2022-07-31T05:29:04;4.07;;;3.37;;
15287;SDS011;7745;48.708;9.026;2022-07-31T05:31:31;2.83;;;2.63;;
15287;SDS011;7745;48.708;9.026;2022-07-31T05:33:58;2.93;;;2.60;;
15287;SDS011;7745;48.708;9.026;2022-07-31T05:36:25;3.57;;;3.03;;
15287;SDS011;7745;48.708;9.026;2022-07-31T05:38:52;3.63;;;3.00;;
15287;SDS011;7745;48.708;9.026;2022-07-31T05:41:18;3.20;;;2.87;;
15287;SDS011;7745;48.708;9.026;2022-07-31T05:43:47;3.50;;;3.20;;
15287;SDS011;7745;48.708;9.026;2022-07-31T05:46:14;4.03;;;3.50;;
15287;SDS011;7745;48.708;9.026;2022-07-31T05:48:41;3.63;;;2.93;;
15287;SDS011;7745;48.708;9.026;2022-07-31T05:51:08;5.20;;;3.50;;
15287;SDS011;7745;48.708;9.026;2022-07-31T05:53:36;3.80;;;3.40;;
15287;SDS011;7745;48.708;9.026;2022-07-31T05:56:03;3.80;;;3.37;;
15287;SDS011;7745;48.708;9.026;2022-07-31T05:58:31;3.60;;;2.97;;
15287;SDS011;7745;48.708;9.026;2022-07-31T06:01:00;3.90;;;3.50;;
15287;SDS011;7745;48.708;9.026;2022-07-31T06:03:27;4.40;;;2.90;;
15287;SDS011;7745;48.708;9.026;2022-07-31T06:05:59;3.23;;;2.90;;
15287;SDS011;7745;48.708;9.026;2022-07-31T06:08:27;3.87;;;3.23;;
15287;SDS011;7745;48.708;9.026;2022-07-31T06:10:54;3.40;;;2.97;;
15287;SDS011;7745;48.708;9.026;2022-07-31T06:13:22;3.40;;;2.47;;
15287;SDS011;7745;48.708;9.026;2022-07-31T06:15:50;4.30;;;3.10;;
15287;SDS011;7745;48.708;9.026;2022-07-31T06:18:18;4.97;;;2.73;;
15287;SDS011;7745;48.708;9.026;2022-07-31T06:20:45;3.53;;;3.03;;
15287;SDS011;7745;48.708;9.026;2022-07-31T06:23:12;3.93;;;2.80;;
15287;SDS011;7745;48.708;9.026;2022-07-31T06:25:39;3.80;;;2.60;;
15287;SDS011;7745;48.708;9.026;2022-07-31T06:28:06;3.67;;;3.10;;
15287;SDS011;7745;48.708;9.026;2022-07-31T06:30:33;5.70;;;2.80;;
15287;SDS011;7745;48.708;9.026;2022-07-31T06:33:00;3.50;;;2.67;;
15287;SDS011;7745;48.708;9.026;2022-07-31T06:35:28;4.07;;;2.90;;
15287;SDS011;7745;48.708;9.026;2022-07-31T06:37:55;3.33;;;2.73;;
15287;SDS011;7745;48.708;9.026;2022-07-31T06:40:22;2.63;;;2.43;;
15287;SDS011;7745;48.708;9.026;2022-07-31T06:42:50;2.67;;;2.40;;
15287;SDS011;7745;48.708;9.026;2022-07-31T06:45:17;4.17;;;2.60;;
15287;SDS011;7745;48.708;9.026;2022-07-31T06:47:44;4.57;;;2.53;;
15287;SDS011;7745;48.708;9.026;2022-07-31T06:50:11;3.00;;;2.60;;
15287;SDS011;7745;48.708;9.026;2022-07-31T06:52:39;3.63;;;2.60;;
15287;SDS011;7745;48.708;9.026;2022-07-31T06:55:07;4.37;;;2.50;;
15287;SDS011;7745;48.708;9.026;2022-07-31T06:57:34;3.37;;;2.23;;
15287;SDS011;7745;48.708;9.026;2022-07-31T07:00:02;2.50;;;2.30;;
15287;SDS011;7745;48.708;9.026;2022-07-31T07:02:30;3.67;;;2.30;;
15287;SDS011;7745;48.708;9.026;2022-07-31T07:04:57;2.77;;;2.23;;
15287;SDS011;7745;48.708;9.026;2022-07-31T07:07:24;3.17;;;2.20;;
15287;SDS011;7745;48.708;9.026;2022-07-31T07:09:52;3.43;;;2.37;;
15287;SDS011;7745;48.708;9.026;2022-07-31T07:12:19;4.43;;;2.60;;
15287;SDS011;7745;48.708;9.026;2022-07-31T07:14:46;4.43;;;2.20;;
15287;SDS011;7745;48.708;9.026;2022-07-31T07:17:13;2.17;;;1.97;;
15287;SDS011;7745;48.708;9.026;2022-07-31T07:19:40;3.70;;;2.10;;
15287;SDS011;7745;48.708;9.026;2022-07-31T07:22:06;4.97;;;2.53;;
15287;SDS011;7745;48.708;9.026;2022-07-31T07:24:33;5.97;;;2.30;;
15287;SDS011;7745;48.708;9.026;2022-07-31T07:27:01;2.33;;;2.10;;
15287;SDS011;7745;48.708;9.026;2022-07-31T07:29:28;5.63;;;2.30;;
15287;SDS011;7745;48.708;9.026;2022-07-31T07:31:55;3.63;;;2.10;;
15287;SDS011;7745;48.708;9.026;2022-07-31T07:34:24;3.43;;;2.20;;
15287;SDS011;7745;48.708;9.026;2022-07-31T07:36:51;4.32;;;2.20;;
15287;SDS011;7745;48.708;9.026;2022-07-31T07:39:18;3.17;;;2.10;;
15287;SDS011;7745;48.708;9.026;2022-07-31T07:41:44;3.13;;;2.10;;
15287;SDS011;7745;48.708;9.026;2022-07-31T07:44:13;4.50;;;2.13;;
15287;SDS011;7745;48.708;9.026;2022-07-31T07:46:40;2.22;;;2.03;;
15287;SDS011;7745;48.708;9.026;2022-07-31T07:49:07;4.25;;;2.08;;
15287;SDS011;7745;48.708;9.026;2022-07-31T07:51:34;3.03;;;2.17;;
15287;SDS011;7745;48.708;9.026;2022-07-31T07:54:01;6.40;;;2.17;;
15287;SDS011;7745;48.708;9.026;2022-07-31T07:56:28;3.85;;;2.10;;
15287;SDS011;7745;48.708;9.026;2022-07-31T07:58:57;3.13;;;2.13;;
15287;SDS011;7745;48.708;9.026;2022-07-31T08:01:40;3.70;;;2.10;;
15287;SDS011;7745;48.708;9.026;2022-07-31T08:04:11;3.42;;;2.45;;
15287;SDS011;7745;48.708;9.026;2022-07-31T08:06:42;2.53;;;2.30;;
15287;SDS011;7745;48.708;9.026;2022-07-31T08:09:14;3.90;;;2.00;;
15287;SDS011;7745;48.708;9.026;2022-07-31T08:11:41;3.67;;;1.83;;
15287;SDS011;7745;48.708;9.026;2022-07-31T08:14:08;2.38;;;2.20;;
15287;SDS011;7745;48.708;9.026;2022-07-31T08:16:46;14.15;;;2.60;;
15287;SDS011;7745;48.708;9.026;2022-07-31T08:19:13;3.40;;;1.80;;
15287;SDS011;7745;48.708;9.026;2022-07-31T08:21:39;2.92;;;1.88;;
15287;SDS011;7745;48.708;9.026;2022-07-31T08:24:08;2.78;;;1.67;;
15287;SDS011;7745;48.708;9.026;2022-07-31T08:26:36;2.47;;;1.60;;
15287;SDS011;7745;48.708;9.026;2022-07-31T08:29:21;6.85;;;2.38;;
15287;SDS011;7745;48.708;9.026;2022-07-31T08:31:50;2.35;;;1.70;;
15287;SDS011;7745;48.708;9.026;2022-07-31T08:34:17;2.42;;;2.00;;
15287;SDS011;7745;48.708;9.026;2022-07-31T08:36:44;2.28;;;1.75;;
15287;SDS011;7745;48.708;9.026;2022-07-31T08:39:11;2.20;;;1.67;;
15287;SDS011;7745;48.708;9.026;2022-07-31T08:41:38;4.40;;;1.98;;
15287;SDS011;7745;48.708;9.026;2022-07-31T08:44:06;2.70;;;1.52;;
15287;SDS011;7745;48.708;9.026;2022-07-31T08:46:35;1.65;;;1.40;;
15287;SDS011;7745;48.708;9.026;2022-07-31T08:49:06;2.03;;;1.33;;
15287;SDS011;7745;48.708;9.026;2022-07-31T08:51:34;2.80;;;1.30;;
15287;SDS011;7745;48.708;9.026;2022-07-31T08:54:05;2.67;;;1.48;;
15287;SDS011;7745;48.708;9.026;2022-07-31T08:56:33;1.73;;;1.60;;
15287;SDS011;7745;48.708;9.026;2022-07-31T08:59:00;1.58;;;1.48;;
15287;SDS011;7745;48.708;9.026;2022-07-31T09:01:27;2.60;;;1.35;;
15287;SDS011;7745;48.708;9.026;2022-07-31T09:03:54;2.22;;;1.40;;
15287;SDS011;7745;48.708;9.026;2022-07-31T09:06:25;4.35;;;1.27;;
15287;SDS011;7745;48.708;9.026;2022-07-31T09:08:53;3.30;;;1.40;;
15287;SDS011;7745;48.708;9.026;2022-07-31T09:11:21;1.98;;;1.20;;
15287;SDS011;7745;48.708;9.026;2022-07-31T09:13:54;3.60;;;1.40;;
15287;SDS011;7745;48.708;9.026;2022-07-31T09:16:22;3.28;;;1.42;;
15287;SDS011;7745;48.708;9.026;2022-07-31T09:18:55;3.03;;;1.33;;
15287;SDS011;7745;48.708;9.026;2022-07-31T09:21:24;3.17;;;1.30;;
15287;SDS011;7745;48.708;9.026;2022-07-31T09:23:51;1.90;;;1.23;;
15287;SDS011;7745;48.708;9.026;2022-07-31T09:26:19;3.38;;;1.10;;
15287;SDS011;7745;48.708;9.026;2022-07-31T09:28:58;3.30;;;1.58;;
15287;SDS011;7745;48.708;9.026;2022-07-31T09:31:30;1.65;;;1.02;;
15287;SDS011;7745;48.708;9.026;2022-07-31T09:33:57;5.18;;;1.45;;
15287;SDS011;7745;48.708;9.026;2022-07-31T09:36:26;1.30;;;1.20;;
15287;SDS011;7745;48.708;9.026;2022-07-31T09:38:53;3.00;;;1.30;;
15287;SDS011;7745;48.708;9.026;2022-07-31T09:41:21;2.95;;;1.20;;
15287;SDS011;7745;48.708;9.026;2022-07-31T09:43:52;2.92;;;1.45;;
15287;SDS011;7745;48.708;9.026;2022-07-31T09:46:20;3.50;;;1.52;;
15287;SDS011;7745;48.708;9.026;2022-07-31T09:48:48;4.75;;;1.40;;
15287;SDS011;7745;48.708;9.026;2022-07-31T09:51:16;3.25;;;1.20;;
15287;SDS011;7745;48.708;9.026;2022-07-31T09:53:45;2.20;;;1.30;;
15287;SDS011;7745;48.708;9.026;2022-07-31T09:56:14;3.53;;;1.23;;
15287;SDS011;7745;48.708;9.026;2022-07-31T09:58:41;1.70;;;1.10;;
15287;SDS011;7745;48.708;9.026;2022-07-31T10:01:09;2.78;;;1.23;;
15287;SDS011;7745;48.708;9.026;2022-07-31T10:03:37;1.88;;;1.25;;
15287;SDS011;7745;48.708;9.026;2022-07-31T10:06:05;2.50;;;1.45;;
15287;SDS011;7745;48.708;9.026;2022-07-31T10:08:36;2.35;;;1.38;;
15287;SDS011;7745;48.708;9.026;2022-07-31T10:11:07;1.33;;;1.23;;
15287;SDS011;7745;48.708;9.026;2022-07-31T10:13:35;4.90;;;1.60;;
15287;SDS011;7745;48.708;9.026;2022-07-31T10:19:21;2.63;;;1.30;;
15287;SDS011;7745;48.708;9.026;2022-07-31T10:21:51;3.95;;;1.40;;
15287;SDS011;7745;48.708;9.026;2022-07-31T10:24:22;3.13;;;1.50;;
15287;SDS011;7745;48.708;9.026;2022-07-31T10:26:52;3.85;;;1.63;;
15287;SDS011;7745;48.708;9.026;2022-07-31T10:29:22;2.67;;;1.42;;
15287;SDS011;7745;48.708;9.026;2022-07-31T10:31:49;1.88;;;1.20;;
15287;SDS011;7745;48.708;9.026;2022-07-31T10:34:16;2.60;;;1.30;;
15287;SDS011;7745;48.708;9.026;2022-07-31T10:36:44;2.05;;;1.27;;
15287;SDS011;7745;48.708;9.026;2022-07-31T10:39:14;3.22;;;1.20;;
15287;SDS011;7745;48.708;9.026;2022-07-31T10:41:50;10.23;;;2.20;;
15287;SDS011;7745;48.708;9.026;2022-07-31T10:44:30;3.85;;;1.35;;
15287;SDS011;7745;48.708;9.026;2022-07-31T10:46:59;1.45;;;1.20;;
15287;SDS011;7745;48.708;9.026;2022-07-31T10:49:37;5.10;;;1.55;;
15287;SDS011;7745;48.708;9.026;2022-07-31T10:52:04;1.73;;;1.20;;
15287;SDS011;7745;48.708;9.026;2022-07-31T10:54:37;2.55;;;1.23;;
15287;SDS011;7745;48.708;9.026;2022-07-31T10:57:07;3.47;;;1.45;;
15287;SDS011;7745;48.708;9.026;2022-07-31T10:59:34;1.92;;;1.30;;
15287;SDS011;7745;48.708;9.026;2022-07-31T11:02:01;3.15;;;1.35;;
15287;SDS011;7745;48.708;9.026;2022-07-31T11:04:29;3.13;;;1.33;;
15287;SDS011;7745;48.708;9.026;2022-07-31T11:06:57;3.20;;;1.40;;
15287;SDS011;7745;48.708;9.026;2022-07-31T11:09:25;1.67;;;1.25;;
15287;SDS011;7745;48.708;9.026;2022-07-31T11:11:53;4.05;;;1.42;;
15287;SDS011;7745;48.708;9.026;2022-07-31T11:14:31;3.63;;;1.42;;
15287;SDS011;7745;48.708;9.026;2022-07-31T11:16:58;4.40;;;1.55;;
15287;SDS011;7745;48.708;9.026;2022-07-31T11:19:35;2.72;;;1.20;;
15287;SDS011;7745;48.708;9.026;2022-07-31T11:22:07;2.33;;;1.30;;
15287;SDS011;7745;48.708;9.026;2022-07-31T11:24:35;2.65;;;1.90;;
15287;SDS011;7745;48.708;9.026;2022-07-31T11:27:03;3.97;;;1.17;;
15287;SDS011;7745;48.708;9.026;2022-07-31T11:29:32;4.13;;;1.65;;
15287;SDS011;7745;48.708;9.026;2022-07-31T11:32:11;10.18;;;1.70;;
15287;SDS011;7745;48.708;9.026;2022-07-31T11:34:43;2.47;;;1.60;;
15287;SDS011;7745;48.708;9.026;2022-07-31T11:37:13;1.85;;;1.30;;
15287;SDS011;7745;48.708;9.026;2022-07-31T11:39:43;3.17;;;1.48;;
15287;SDS011;7745;48.708;9.026;2022-07-31T11:42:10;3.45;;;1.40;;
15287;SDS011;7745;48.708;9.026;2022-07-31T11:44:38;3.45;;;1.50;;
15287;SDS011;7745;48.708;9.026;2022-07-31T11:47:06;3.05;;;1.50;;
15287;SDS011;7745;48.708;9.026;2022-07-31T11:49:34;3.22;;;1.63;;
15287;SDS011;7745;48.708;9.026;2022-07-31T11:52:02;3.15;;;1.40;;
15287;SDS011;7745;48.708;9.026;2022-07-31T11:55:01;2.28;;;1.30;;
15287;SDS011;7745;48.708;9.026;2022-07-31T11:57:38;3.22;;;1.58;;
15287;SDS011;7745;48.708;9.026;2022-07-31T12:00:16;3.03;;;1.73;;
15287;SDS011;7745;48.708;9.026;2022-07-31T12:02:47;3.70;;;1.50;;
15287;SDS011;7745;48.708;9.026;2022-07-31T12:05:16;1.80;;;1.25;;
15287;SDS011;7745;48.708;9.026;2022-07-31T12:07:45;2.03;;;1.55;;
15287;SDS011;7745;48.708;9.026;2022-07-31T12:10:13;4.25;;;1.50;;
15287;SDS011;7745;48.708;9.026;2022-07-31T12:12:43;2.15;;;1.40;;
15287;SDS011;7745;48.708;9.026;2022-07-31T12:15:14;3.33;;;1.40;;
15287;SDS011;7745;48.708;9.026;2022-07-31T12:17:45;2.80;;;1.58;;
15287;SDS011;7745;48.708;9.026;2022-07-31T12:20:15;1.70;;;1.30;;
15287;SDS011;7745;48.708;9.026;2022-07-31T12:22:43;2.58;;;1.50;;
15287;SDS011;7745;48.708;9.026;2022-07-31T12:25:24;3.35;;;1.55;;
15287;SDS011;7745;48.708;9.026;2022-07-31T12:27:54;1.80;;;1.40;;
15287;SDS011;7745;48.708;9.026;2022-07-31T12:30:58;2.08;;;1.35;;
15287;SDS011;7745;48.708;9.026;2022-07-31T12:33:40;1.45;;;1.25;;
15287;SDS011;7745;48.708;9.026;2022-07-31T12:36:15;2.03;;;1.30;;
15287;SDS011;7745;48.708;9.026;2022-07-31T12:38:59;5.78;;;1.63;;
15287;SDS011;7745;48.708;9.026;2022-07-31T12:41:46;1.92;;;1.42;;
15287;SDS011;7745;48.708;9.026;2022-07-31T12:44:26;4.30;;;1.65;;
15287;SDS011;7745;48.708;9.026;2022-07-31T12:47:25;5.00;;;1.70;;
15287;SDS011;7745;48.708;9.026;2022-07-31T12:53:10;5.15;;;1.45;;
15287;SDS011;7745;48.708;9.026;2022-07-31T12:55:42;2.20;;;1.30;;
15287;SDS011;7745;48.708;9.026;2022-07-31T12:58:22;2.55;;;1.08;;
15287;SDS011;7745;48.708;9.026;2022-07-31T13:01:13;1.38;;;1.05;;
15287;SDS011;7745;48.708;9.026;2022-07-31T13:04:33;2.83;;;1.40;;
15287;SDS011;7745;48.708;9.026;2022-07-31T13:07:00;3.05;;;1.30;;
15287;SDS011;7745;48.708;9.026;2022-07-31T13:09:27;3.25;;;1.52;;
15287;SDS011;7745;48.708;9.026;2022-07-31T13:11:54;2.67;;;1.17;;
15287;SDS011;7745;48.708;9.026;2022-07-31T13:14:21;2.35;;;1.00;;
15287;SDS011;7745;48.708;9.026;2022-07-31T13:16:49;3.22;;;1.00;;
15287;SDS011;7745;48.708;9.026;2022-07-31T13:19:17;1.95;;;1.20;;
15287;SDS011;7745;48.708;9.026;2022-07-31T13:21:46;2.25;;;1.27;;
15287;SDS011;7745;48.708;9.026;2022-07-31T13:24:14;3.22;;;1.30;;
15287;SDS011;7745;48.708;9.026;2022-07-31T13:26:41;3.72;;;1.10;;
15287;SDS011;7745;48.708;9.026;2022-07-31T13:29:09;3.83;;;1.30;;
15287;SDS011;7745;48.708;9.026;2022-07-31T13:31:36;2.78;;;1.20;;
15287;SDS011;7745;48.708;9.026;2022-07-31T13:34:03;2.20;;;1.15;;
15287;SDS011;7745;48.708;9.026;2022-07-31T13:36:30;2.40;;;1.13;;
15287;SDS011;7745;48.708;9.026;2022-07-31T13:38:58;2.83;;;1.30;;
15287;SDS011;7745;48.708;9.026;2022-07-31T13:41:25;2.63;;;1.25;;
15287;SDS011;7745;48.708;9.026;2022-07-31T13:43:55;1.85;;;1.10;;
15287;SDS011;7745;48.708;9.026;2022-07-31T13:46:22;2.67;;;1.30;;
15287;SDS011;7745;48.708;9.026;2022-07-31T13:48:50;2.22;;;1.10;;
15287;SDS011;7745;48.708;9.026;2022-07-31T13:51:18;2.35;;;1.15;;
15287;SDS011;7745;48.708;9.026;2022-07-31T13:53:45;2.67;;;1.20;;
15287;SDS011;7745;48.708;9.026;2022-07-31T13:56:14;2.20;;;1.20;;
15287;SDS011;7745;48.708;9.026;2022-07-31T13:58:45;2.15;;;1.20;;
15287;SDS011;7745;48.708;9.026;2022-07-31T14:01:18;2.25;;;1.27;;
15287;SDS011;7745;48.708;9.026;2022-07-31T14:03:48;4.95;;;1.58;;
15287;SDS011;7745;48.708;9.026;2022-07-31T14:06:18;2.53;;;1.27;;
15287;SDS011;7745;48.708;9.026;2022-07-31T14:08:51;1.33;;;1.17;;
15287;SDS011;7745;48.708;9.026;2022-07-31T14:11:19;2.10;;;1.00;;
15287;SDS011;7745;48.708;9.026;2022-07-31T14:13:50;2.65;;;1.10;;
15287;SDS011;7745;48.708;9.026;2022-07-31T14:16:17;2.13;;;1.10;;
15287;SDS011;7745;48.708;9.026;2022-07-31T14:18:48;3.08;;;1.40;;
15287;SDS011;7745;48.708;9.026;2022-07-31T14:21:16;4.03;;;1.20;;
15287;SDS011;7745;48.708;9.026;2022-07-31T14:23:43;2.22;;;1.05;;
15287;SDS011;7745;48.708;9.026;2022-07-31T14:26:13;3.30;;;1.20;;
15287;SDS011;7745;48.708;9.026;2022-07-31T14:28:41;5.07;;;1.40;;
15287;SDS011;7745;48.708;9.026;2022-07-31T14:31:08;1.98;;;1.20;;
15287;SDS011;7745;48.708;9.026;2022-07-31T14:33:36;1.38;;;1.20;;
15287;SDS011;7745;48.708;9.026;2022-07-31T14:36:03;1.50;;;1.25;;
15287;SDS011;7745;48.708;9.026;2022-07-31T14:38:30;1.48;;;1.05;;
15287;SDS011;7745;48.708;9.026;2022-07-31T14:41:00;2.17;;;1.05;;
15287;SDS011;7745;48.708;9.026;2022-07-31T14:43:27;2.53;;;1.25;;
15287;SDS011;7745;48.708;9.026;2022-07-31T14:45:56;1.85;;;1.20;;
15287;SDS011;7745;48.708;9.026;2022-07-31T14:48:23;2.10;;;1.13;;
15287;SDS011;7745;48.708;9.026;2022-07-31T14:50:51;1.45;;;1.35;;
15287;SDS011;7745;48.708;9.026;2022-07-31T14:53:21;2.63;;;1.27;;
15287;SDS011;7745;48.708;9.026;2022-07-31T14:55:48;1.92;;;1.13;;
15287;SDS011;7745;48.708;9.026;2022-07-31T14:58:17;3.03;;;1.30;;
15287;SDS011;7745;48.708;9.026;2022-07-31T15:00:45;3.45;;;1.17;;
15287;SDS011;7745;48.708;9.026;2022-07-31T15:03:13;1.88;;;1.38;;
15287;SDS011;7745;48.708;9.026;2022-07-31T15:05:40;2.63;;;1.40;;
15287;SDS011;7745;48.708;9.026;2022-07-31T15:08:08;3.75;;;1.30;;
15287;SDS011;7745;48.708;9.026;2022-07-31T15:10:36;2.88;;;1.25;;
15287;SDS011;7745;48.708;9.026;2022-07-31T15:13:03;2.17;;;1.35;;
15287;SDS011;7745;48.708;9.026;2022-07-31T15:15:30;1.10;;;1.00;;
15287;SDS011;7745;48.708;9.026;2022-07-31T15:20:57;2.28;;;1.27;;
15287;SDS011;7745;48.708;9.026;2022-07-31T15:23:36;1.85;;;1.25;;